Time;durP1;ratioP1;P1;durP2;ratioP2;P2;SDS_P1;SDS_P2;PMS_P1;PMS_P2;Temp;Humidity;BMP_temperature;BMP_pressure;BME280_temperature;BME280_humidity;BME280_pressure;Samples;Min_cycle;Max_cycle;Signal;HPM_P1;HPM_P2
2023/07/21 00:01:53;;;;;;;2.75;2.55;;;24.40;53.50;25.10;100393.00;;;;6271376;22;20153;-57
2023/07/21 00:04:20;;;;;;;2.83;2.63;;;24.10;53.60;25.10;100396.00;;;;6271153;22;20206;-57
2023/07/21 00:06:46;;;;;;;3.40;3.10;;;24.10;54.10;25.10;100392.00;;;;6270608;22;20168;-57
2023/07/21 00:09:12;;;;;;;2.67;2.47;;;24.20;54.00;25.10;100401.00;;;;6269328;22;20155;-57
2023/07/21 00:11:38;;;;;;;3.10;2.70;;;24.20;54.00;25.10;100390.00;;;;6271304;22;20319;-56
2023/07/21 00:14:10;;;;;;;2.60;2.33;;;24.10;54.10;25.00;100386.00;;;;6271003;22;20198;-57
2023/07/21 00:16:35;;;;;;;2.40;2.20;;;24.20;54.00;25.00;100394.00;;;;6270751;22;20195;-57
2023/07/21 00:19:01;;;;;;;2.88;2.30;;;24.30;53.70;25.00;100379.00;;;;6270891;22;20156;-57
2023/07/21 00:21:28;;;;;;;2.80;2.40;;;24.30;53.70;25.00;100389.00;;;;6269343;22;20492;-57
2023/07/21 00:23:54;;;;;;;2.60;2.40;;;24.30;53.50;25.00;100376.00;;;;6271320;22;20160;-57
2023/07/21 00:26:20;;;;;;;2.60;2.40;;;24.30;53.70;25.00;100366.00;;;;6269200;22;20156;-57
2023/07/21 00:28:46;;;;;;;2.65;2.45;;;24.20;53.70;25.00;100379.00;;;;6270832;22;20144;-55
2023/07/21 00:31:11;;;;;;;2.60;2.40;;;24.20;53.70;25.00;100375.00;;;;6270735;22;20149;-55
2023/07/21 00:33:37;;;;;;;2.40;2.20;;;24.20;53.70;25.00;100370.00;;;;6270913;22;20628;-55
2023/07/21 00:36:04;;;;;;;2.72;2.53;;;24.20;53.60;25.00;100369.00;;;;6270480;22;20667;-56
2023/07/21 00:38:30;;;;;;;2.27;2.10;;;24.10;53.60;24.90;100371.00;;;;6270911;22;20168;-56
2023/07/21 00:40:56;;;;;;;2.53;2.33;;;24.10;53.70;24.90;100372.00;;;;6271207;22;20152;-57
2023/07/21 00:43:22;;;;;;;2.90;2.70;;;24.10;53.60;24.70;100372.00;;;;6270717;22;20149;-57
2023/07/21 00:45:48;;;;;;;2.83;2.63;;;24.10;53.90;24.90;100366.00;;;;6278341;22;20152;-57
2023/07/21 00:48:16;;;;;;;2.60;2.40;;;23.70;54.60;24.90;100370.00;;;;6273961;22;20199;-57
2023/07/21 00:50:44;;;;;;;2.50;2.30;;;23.70;54.80;24.80;100375.00;;;;6269448;22;20532;-57
2023/07/21 00:53:11;;;;;;;2.60;2.40;;;23.70;54.60;24.80;100376.00;;;;6244469;22;20234;-57
2023/07/21 00:55:38;;;;;;;2.70;2.50;;;23.80;54.70;24.60;100372.00;;;;6269231;22;20155;-57
2023/07/21 00:58:07;;;;;;;2.80;2.60;;;23.80;54.60;24.80;100377.00;;;;6269127;22;20644;-57
2023/07/21 01:00:33;;;;;;;2.50;2.30;;;23.80;54.50;24.80;100373.00;;;;6276451;22;20151;-57
2023/07/21 01:02:59;;;;;;;2.60;2.40;;;23.80;54.60;24.70;100368.00;;;;6275227;22;20502;-56
2023/07/21 01:05:24;;;;;;;2.65;2.45;;;23.90;54.30;24.70;100371.00;;;;6218776;22;20585;-57
2023/07/21 01:07:50;;;;;;;2.50;2.30;;;24.10;54.10;24.70;100372.00;;;;6268966;22;20185;-57
2023/07/21 01:10:16;;;;;;;2.27;2.07;;;24.00;54.00;24.70;100380.00;;;;6270533;22;20176;-57
2023/07/21 01:12:42;;;;;;;2.72;2.53;;;24.00;53.90;24.70;100313.00;;;;6217716;22;20181;-57
2023/07/21 01:15:09;;;;;;;2.60;2.40;;;24.00;54.20;24.70;100373.00;;;;6243243;22;20149;-57
2023/07/21 01:17:35;;;;;;;2.40;2.20;;;23.90;54.30;24.60;100385.00;;;;6270151;22;20183;-57
2023/07/21 01:20:00;;;;;;;2.10;2.00;;;24.00;54.10;24.60;100368.00;;;;6268704;22;20157;-56
2023/07/21 01:22:42;;;;;;;2.23;2.03;;;24.00;53.80;24.60;100366.00;;;;6218063;22;20145;-56
2023/07/21 01:25:12;;;;;;;2.20;2.00;;;24.10;54.10;24.60;100376.00;;;;6245754;22;20141;-56
2023/07/21 01:27:39;;;;;;;2.40;2.20;;;24.10;53.60;24.60;100372.00;;;;6270470;22;20656;-58
2023/07/21 01:30:10;;;;;;;2.23;2.10;;;24.10;53.60;24.60;100367.00;;;;6270604;22;20156;-56
2023/07/21 01:32:37;;;;;;;2.00;1.90;;;24.10;53.60;24.60;100372.00;;;;6270736;22;20168;-55
2023/07/21 01:35:03;;;;;;;2.47;2.20;;;24.10;53.80;24.60;100358.00;;;;6243763;22;20232;-57
2023/07/21 01:37:31;;;;;;;2.10;2.00;;;24.00;53.80;24.50;100352.00;;;;6218148;22;20177;-57
2023/07/21 01:39:56;;;;;;;2.50;2.30;;;24.00;54.00;24.50;100351.00;;;;6268803;22;20228;-57
2023/07/21 01:42:29;;;;;;;2.60;2.40;;;24.00;54.10;24.50;100354.00;;;;6243371;22;20156;-57
2023/07/21 01:44:56;;;;;;;2.73;2.40;;;24.00;54.30;24.50;100352.00;;;;6244940;22;20133;-56
2023/07/21 01:47:24;;;;;;;3.13;2.30;;;24.00;54.30;24.50;100355.00;;;;6270407;22;20631;-56
2023/07/21 01:49:51;;;;;;;2.40;2.20;;;23.90;54.20;24.50;100357.00;;;;6270534;22;20210;-55
2023/07/21 01:52:18;;;;;;;2.70;2.50;;;24.00;54.30;24.50;100352.00;;;;6270651;22;20177;-56
2023/07/21 01:54:48;;;;;;;2.67;2.47;;;23.90;54.30;24.50;100351.00;;;;6243430;22;20145;-57
2023/07/21 01:57:23;;;;;;;2.50;2.30;;;23.90;54.40;24.40;100343.00;;;;6243010;22;20614;-56
2023/07/21 01:59:49;;;;;;;3.73;2.70;;;23.90;54.50;24.40;100342.00;;;;6243756;22;20247;-57
2023/07/21 02:02:14;;;;;;;2.50;2.30;;;23.90;54.60;24.40;100341.00;;;;6217980;22;20146;-56
2023/07/21 02:04:51;;;;;;;2.57;2.37;;;23.80;54.50;24.40;100330.00;;;;6243281;22;20150;-56
2023/07/21 02:07:18;;;;;;;2.60;2.40;;;23.80;54.50;24.40;100324.00;;;;6268595;22;20585;-56
2023/07/21 02:09:44;;;;;;;2.80;2.60;;;23.80;54.50;24.40;100331.00;;;;6270234;22;20264;-56
2023/07/21 02:12:11;;;;;;;2.30;2.10;;;23.90;54.50;24.40;100333.00;;;;6271280;22;20430;-56
2023/07/21 02:14:37;;;;;;;2.60;2.40;;;23.90;54.50;24.40;100338.00;;;;6270420;22;20164;-56
2023/07/21 02:17:02;;;;;;;2.60;2.30;;;23.80;54.30;24.40;100274.00;;;;6271690;22;20256;-56
2023/07/21 02:19:28;;;;;;;2.67;2.40;;;23.90;54.20;24.30;100339.00;;;;6272151;22;20211;-56
2023/07/21 02:21:54;;;;;;;2.60;2.40;;;23.80;54.20;24.30;100333.00;;;;6272077;22;20520;-57
2023/07/21 02:24:20;;;;;;;2.70;2.50;;;23.80;54.20;24.30;100318.00;;;;6271956;22;20156;-56
2023/07/21 02:26:45;;;;;;;2.43;2.23;;;23.80;54.30;24.30;100325.00;;;;6271829;22;20172;-57
2023/07/21 02:29:11;;;;;;;2.50;2.30;;;23.80;54.30;24.30;100325.00;;;;6271835;22;20160;-57
2023/07/21 02:31:37;;;;;;;2.33;2.13;;;23.80;54.30;24.30;100315.00;;;;6271749;22;20176;-55
2023/07/21 02:34:05;;;;;;;2.83;2.63;;;23.80;54.30;24.30;100320.00;;;;6271969;22;20160;-56
2023/07/21 02:36:30;;;;;;;2.50;2.30;;;23.80;54.30;24.30;100332.00;;;;6271916;22;20179;-55
2023/07/21 02:38:56;;;;;;;2.50;2.30;;;23.80;54.20;24.30;100330.00;;;;6272319;22;20602;-56
2023/07/21 02:41:22;;;;;;;2.50;2.30;;;23.80;54.20;24.30;100335.00;;;;6272320;22;20730;-55
2023/07/21 02:43:47;;;;;;;2.43;2.27;;;23.80;54.10;24.20;100332.00;;;;6272587;22;20148;-57
2023/07/21 02:46:14;;;;;;;2.40;2.20;;;23.80;54.20;24.20;100324.00;;;;6272615;22;20183;-57
2023/07/21 02:48:39;;;;;;;2.50;2.30;;;23.70;54.20;24.20;100331.00;;;;6278148;22;20204;-56
2023/07/21 02:51:05;;;;;;;4.07;2.33;;;23.70;54.30;24.20;100313.00;;;;6273548;22;20432;-56
2023/07/21 02:53:31;;;;;;;3.53;2.40;;;23.70;54.50;24.20;100308.00;;;;6272188;22;20490;-56
2023/07/21 02:55:57;;;;;;;3.47;2.30;;;23.70;54.70;24.20;100319.00;;;;6271452;22;20154;-56
2023/07/21 02:58:26;;;;;;;3.23;2.93;;;23.70;54.60;24.20;100331.00;;;;6272164;22;20175;-55
2023/07/21 03:00:54;;;;;;;2.70;2.50;;;23.60;54.90;24.20;100326.00;;;;6274827;22;20512;-57
2023/07/21 03:03:20;;;;;;;3.17;2.30;;;23.50;55.10;24.20;100335.00;;;;6278043;22;20149;-57
2023/07/21 03:05:45;;;;;;;3.20;2.90;;;23.60;55.10;24.20;100339.00;;;;6271388;22;20149;-58
2023/07/21 03:08:12;;;;;;;2.77;2.57;;;23.60;55.00;24.20;100339.00;;;;6271264;22;20165;-56
2023/07/21 03:10:38;;;;;;;2.43;2.23;;;23.60;54.70;24.10;100332.00;;;;6220004;22;20291;-56
2023/07/21 03:13:03;;;;;;;2.40;2.20;;;23.60;54.60;24.10;100330.00;;;;6272057;22;20227;-56
2023/07/21 03:15:29;;;;;;;2.50;2.30;;;23.60;54.90;24.10;100326.00;;;;6272356;22;20148;-56
2023/07/21 03:17:55;;;;;;;2.80;2.60;;;23.60;54.90;24.00;100311.00;;;;6272437;22;20564;-56
2023/07/21 03:20:20;;;;;;;2.80;2.60;;;23.60;55.00;24.00;100309.00;;;;6272687;22;20191;-56
2023/07/21 03:22:46;;;;;;;2.50;2.30;;;23.60;55.00;24.00;100308.00;;;;6272755;22;20149;-56
2023/07/21 03:25:13;;;;;;;3.07;2.77;;;23.60;54.90;24.00;100294.00;;;;6272784;22;20145;-56
2023/07/21 03:27:43;;;;;;;3.67;2.90;;;23.60;55.10;24.00;100303.00;;;;6272923;22;20249;-54
2023/07/21 03:30:09;;;;;;;2.90;2.67;;;23.50;55.40;23.90;100292.00;;;;6273454;22;20183;-54
2023/07/21 03:32:36;;;;;;;2.90;2.70;;;23.50;55.30;23.90;100271.00;;;;6271888;22;20215;-54
2023/07/21 03:35:04;;;;;;;2.87;2.67;;;23.50;55.10;23.90;100296.00;;;;6268467;22;20156;-55
2023/07/21 03:37:31;;;;;;;3.93;3.50;;;23.50;55.10;23.90;100285.00;;;;6270405;22;20169;-55
2023/07/21 03:39:57;;;;;;;4.93;4.23;;;23.50;55.30;23.90;100294.00;;;;6272132;22;20144;-54
2023/07/21 03:42:23;;;;;;;4.80;4.40;;;23.40;55.50;23.90;100292.00;;;;6272738;22;20550;-54
2023/07/21 03:44:52;;;;;;;3.77;3.47;;;23.50;55.60;23.90;100233.00;;;;6271936;22;20149;-54
2023/07/21 03:47:19;;;;;;;3.80;3.50;;;23.50;55.40;23.90;100308.00;;;;6272434;22;20176;-54
2023/07/21 03:49:50;;;;;;;3.00;2.80;;;23.50;55.40;23.80;100309.00;;;;6272401;22;20752;-53
2023/07/21 03:52:18;;;;;;;3.47;3.17;;;23.50;55.30;23.90;100305.00;;;;6272947;22;20169;-54
2023/07/21 03:54:43;;;;;;;4.37;3.00;;;23.50;55.30;23.90;100316.00;;;;6272297;22;20148;-54
2023/07/21 03:57:10;;;;;;;3.20;2.90;;;23.50;55.10;23.60;100315.00;;;;6271953;22;20165;-54
2023/07/21 03:59:37;;;;;;;3.83;3.50;;;23.50;55.20;23.80;100321.00;;;;6272392;22;20145;-54
2023/07/21 04:02:03;;;;;;;9.10;3.33;;;23.50;55.60;23.90;100322.00;;;;6270613;22;20280;-55
2023/07/21 04:04:32;;;;;;;3.27;2.60;;;23.40;55.70;23.90;100322.00;;;;6271577;22;20153;-56
2023/07/21 04:07:01;;;;;;;2.77;2.50;;;23.40;55.20;23.80;100315.00;;;;6270698;22;20173;-54
2023/07/21 04:09:28;;;;;;;2.97;2.53;;;23.40;55.20;23.80;100316.00;;;;6272173;22;20145;-53
2023/07/21 04:11:53;;;;;;;2.87;2.67;;;23.40;55.40;23.80;100315.00;;;;6271994;22;20218;-54
2023/07/21 04:14:19;;;;;;;3.80;2.60;;;23.40;55.60;23.70;100313.00;;;;6271805;22;20145;-54
2023/07/21 04:16:45;;;;;;;2.60;2.40;;;23.40;55.50;23.70;100315.00;;;;6268854;22;20239;-56
2023/07/21 04:19:11;;;;;;;3.30;2.60;;;23.30;55.40;23.70;100305.00;;;;6271587;22;20211;-54
2023/07/21 04:21:37;;;;;;;3.97;2.70;;;23.30;55.50;23.70;100308.00;;;;6271379;22;20605;-54
2023/07/21 04:24:03;;;;;;;4.33;2.70;;;23.30;55.60;23.70;100303.00;;;;6150557;22;20241;-54
2023/07/21 04:26:30;;;;;;;2.80;2.60;;;23.30;55.80;23.70;100308.00;;;;6267867;22;20152;-54
2023/07/21 04:28:55;;;;;;;3.20;2.90;;;23.20;55.80;23.70;100306.00;;;;6271420;22;20149;-54
2023/07/21 04:31:28;;;;;;;3.13;2.93;;;23.20;55.90;23.70;100309.00;;;;6218122;22;20259;-54
2023/07/21 04:33:55;;;;;;;3.17;2.97;;;23.20;55.80;23.70;100312.00;;;;6271636;22;20478;-54
2023/07/21 04:36:21;;;;;;;3.23;2.93;;;23.20;55.90;23.60;100302.00;;;;6269337;22;20172;-54
2023/07/21 04:38:48;;;;;;;4.10;3.80;;;23.20;55.90;23.60;100295.00;;;;6243810;22;20149;-54
2023/07/21 04:41:13;;;;;;;4.90;4.50;;;23.20;56.10;23.60;100302.00;;;;6272211;22;20153;-57
2023/07/21 04:43:39;;;;;;;5.17;4.77;;;23.20;56.20;23.60;100299.00;;;;6272395;22;20227;-55
2023/07/21 04:46:05;;;;;;;4.70;4.30;;;23.20;56.20;23.60;100295.00;;;;6270612;22;20484;-55
2023/07/21 04:48:31;;;;;;;5.07;4.63;;;23.20;56.20;23.60;100301.00;;;;6277768;22;20161;-54
2023/07/21 04:50:57;;;;;;;4.17;3.80;;;23.10;56.30;23.60;100300.00;;;;6273397;22;20144;-54
2023/07/21 04:53:23;;;;;;;4.90;4.50;;;23.10;56.20;23.50;100294.00;;;;6271589;22;20191;-55
2023/07/21 04:55:49;;;;;;;5.27;4.87;;;23.10;56.30;23.50;100288.00;;;;6271228;22;20152;-54
2023/07/21 04:58:15;;;;;;;5.97;5.57;;;23.10;56.40;23.50;100276.00;;;;6270159;22;20712;-54
2023/07/21 05:00:41;;;;;;;6.70;6.20;;;23.10;56.70;23.50;100281.00;;;;6271821;22;20184;-53
2023/07/21 05:03:06;;;;;;;6.23;5.73;;;23.10;56.70;23.50;100288.00;;;;6278118;22;20501;-54
2023/07/21 05:05:33;;;;;;;5.00;4.60;;;23.10;56.70;23.50;100286.00;;;;6272544;22;20145;-54
2023/07/21 05:08:01;;;;;;;4.53;4.13;;;23.00;56.70;23.50;100290.00;;;;6269835;22;20164;-56
2023/07/21 05:10:27;;;;;;;4.63;4.23;;;23.00;56.50;23.50;100291.00;;;;6271800;22;20159;-56
2023/07/21 05:12:53;;;;;;;5.77;5.20;;;23.10;56.60;23.50;100288.00;;;;6271688;22;20199;-54
2023/07/21 05:15:19;;;;;;;5.17;4.77;;;23.10;56.60;23.50;100289.00;;;;6270705;22;20145;-54
2023/07/21 05:17:44;;;;;;;6.40;6.00;;;23.10;56.60;23.50;100291.00;;;;6269142;22;20617;-54
2023/07/21 05:20:11;;;;;;;7.97;6.60;;;23.00;57.00;23.50;100301.00;;;;6271393;22;20148;-55
2023/07/21 05:22:37;;;;;;;4.63;4.23;;;23.10;57.20;23.50;100287.00;;;;6271470;22;20164;-54
2023/07/21 05:25:08;;;;;;;4.20;3.80;;;23.00;56.30;23.50;100294.00;;;;6271332;22;20655;-55
2023/07/21 05:27:34;;;;;;;4.20;3.80;;;22.90;56.40;23.40;100286.00;;;;6271049;22;20310;-54
2023/07/21 05:30:00;;;;;;;6.60;6.00;;;23.00;56.80;23.40;100292.00;;;;6272025;22;20157;-54
2023/07/21 05:32:25;;;;;;;5.97;5.47;;;22.90;57.20;23.50;100292.00;;;;6271020;22;20687;-54
2023/07/21 05:34:51;;;;;;;5.77;5.27;;;22.90;57.70;23.50;100297.00;;;;6271323;22;20172;-55
2023/07/21 05:37:17;;;;;;;6.13;5.17;;;22.60;58.20;23.50;100298.00;;;;6270201;22;20178;-54
2023/07/21 05:39:42;;;;;;;5.60;5.20;;;22.50;58.50;23.40;100296.00;;;;6271386;22;20149;-55
2023/07/21 05:42:08;;;;;;;5.40;5.00;;;22.40;58.90;23.40;100292.00;;;;6271580;22;20154;-54
2023/07/21 05:44:34;;;;;;;5.03;4.63;;;22.50;58.70;23.40;100301.00;;;;6269737;22;20149;-54
2023/07/21 05:47:00;;;;;;;5.10;4.70;;;22.70;58.40;23.40;100302.00;;;;6270905;22;20226;-54
2023/07/21 05:49:26;;;;;;;5.57;5.07;;;22.70;58.30;23.40;100303.00;;;;6273457;22;20554;-54
2023/07/21 05:51:52;;;;;;;5.80;5.40;;;22.60;58.30;23.40;100304.00;;;;6273434;22;20259;-54
2023/07/21 05:54:18;;;;;;;5.77;5.37;;;22.60;58.50;23.40;100309.00;;;;6273547;22;20163;-54
2023/07/21 05:56:44;;;;;;;4.57;4.03;;;22.70;58.60;23.40;100310.00;;;;6270447;22;20172;-54
2023/07/21 05:59:10;;;;;;;4.73;4.33;;;22.70;57.60;23.30;100311.00;;;;6273159;22;20145;-54
2023/07/21 06:01:38;;;;;;;3.30;3.10;;;22.80;57.20;23.30;100314.00;;;;6272849;22;20279;-53
2023/07/21 06:04:05;;;;;;;5.80;5.30;;;22.80;56.90;23.30;100305.00;;;;6247189;22;20149;-54
2023/07/21 06:06:31;;;;;;;4.13;3.73;;;22.70;57.90;23.30;100319.00;;;;6271968;22;20149;-55
2023/07/21 06:08:57;;;;;;;3.40;3.10;;;22.70;57.40;23.30;100310.00;;;;6272705;22;20180;-54
2023/07/21 06:11:24;;;;;;;4.60;3.73;;;22.70;57.30;23.20;100303.00;;;;6271150;22;20153;-53
2023/07/21 06:13:50;;;;;;;5.80;5.37;;;22.60;57.20;23.20;100312.00;;;;6273360;22;20164;-54
2023/07/21 06:16:16;;;;;;;5.00;4.50;;;22.70;58.10;23.30;100301.00;;;;6271579;22;20153;-53
2023/07/21 06:18:42;;;;;;;3.40;3.20;;;22.70;57.30;23.30;100296.00;;;;6272238;22;20161;-56
2023/07/21 06:21:11;;;;;;;3.70;3.40;;;22.70;56.80;23.30;100298.00;;;;6272934;22;20670;-55
2023/07/21 06:23:38;;;;;;;3.40;3.07;;;22.70;56.80;23.20;100307.00;;;;6272161;22;20199;-56
2023/07/21 06:26:04;;;;;;;2.90;2.70;;;22.70;56.80;23.20;100311.00;;;;6271772;22;20169;-53
2023/07/21 06:28:30;;;;;;;10.90;10.07;;;22.70;56.80;23.20;100308.00;;;;6272951;22;20675;-54
2023/07/21 06:30:55;;;;;;;8.70;8.00;;;22.50;58.70;23.20;100310.00;;;;6273246;22;20165;-55
2023/07/21 06:33:22;;;;;;;5.40;5.00;;;22.50;58.70;23.30;100308.00;;;;6272849;22;20684;-55
2023/07/21 06:35:49;;;;;;;4.10;3.80;;;22.50;57.90;23.20;100304.00;;;;6270780;22;20214;-55
2023/07/21 06:38:14;;;;;;;3.53;3.17;;;22.50;57.40;23.10;100295.00;;;;6273058;22;20175;-57
2023/07/21 06:40:40;;;;;;;5.07;4.60;;;22.50;57.30;23.10;100309.00;;;;6272869;22;20145;-54
2023/07/21 06:43:06;;;;;;;5.57;5.07;;;22.50;57.60;23.10;100299.00;;;;6273210;22;20153;-54
2023/07/21 06:45:33;;;;;;;5.20;4.80;;;22.50;57.70;23.00;100300.00;;;;6272447;22;20145;-54
2023/07/21 06:47:59;;;;;;;4.63;4.23;;;22.50;57.80;23.00;100288.00;;;;6273484;22;20185;-54
2023/07/21 06:50:25;;;;;;;4.53;4.13;;;22.50;57.80;23.00;100286.00;;;;6279615;22;20163;-54
2023/07/21 06:52:51;;;;;;;7.20;6.50;;;22.50;57.80;23.10;100293.00;;;;6273916;22;20267;-55
2023/07/21 06:55:17;;;;;;;6.00;5.50;;;22.50;58.00;23.00;100284.00;;;;6271813;22;20151;-55
2023/07/21 06:57:43;;;;;;;6.37;5.87;;;22.50;58.20;23.10;100284.00;;;;6271329;22;20173;-55
2023/07/21 07:00:12;;;;;;;9.80;8.80;;;22.50;58.00;23.10;100286.00;;;;6266811;22;20169;-55
2023/07/21 07:02:39;;;;;;;8.40;7.70;;;22.40;59.40;23.10;100279.00;;;;6260609;22;20264;-57
2023/07/21 07:05:04;;;;;;;4.30;4.00;;;22.50;58.90;23.10;100285.00;;;;6267431;22;20176;-54
2023/07/21 07:07:30;;;;;;;4.60;4.20;;;22.50;58.20;23.10;100291.00;;;;6270540;22;20184;-56
2023/07/21 07:09:56;;;;;;;4.50;3.80;;;22.50;57.90;23.10;100289.00;;;;6270162;22;20149;-54
2023/07/21 07:12:22;;;;;;;7.90;6.90;;;22.50;58.00;23.10;100285.00;;;;6270463;22;20184;-54
2023/07/21 07:14:47;;;;;;;8.33;7.57;;;22.60;58.80;23.20;100290.00;;;;6268605;22;20156;-54
2023/07/21 07:17:13;;;;;;;6.90;6.30;;;22.60;59.30;23.00;100289.00;;;;6270113;22;20181;-55
2023/07/21 07:19:39;;;;;;;10.93;9.93;;;22.50;59.00;23.20;100284.00;;;;6269050;22;20145;-55
2023/07/21 07:22:08;;;;;;;5.53;5.00;;;22.60;59.50;23.20;100287.00;;;;6263095;22;20510;-54
2023/07/21 07:24:35;;;;;;;5.30;4.00;;;22.60;58.10;23.20;100287.00;;;;6271963;22;20590;-56
2023/07/21 07:27:00;;;;;;;4.90;4.13;;;22.60;58.30;23.20;100290.00;;;;6245044;22;20220;-55
2023/07/21 07:29:27;;;;;;;6.07;5.47;;;22.60;58.20;23.20;100285.00;;;;6245627;22;20478;-55
2023/07/21 07:31:52;;;;;;;9.73;8.83;;;22.50;58.60;23.20;100287.00;;;;6272742;22;20213;-54
2023/07/21 07:34:18;;;;;;;10.97;10.07;;;22.50;59.00;23.20;100288.00;;;;6272515;22;20145;-54
2023/07/21 07:36:44;;;;;;;8.17;7.47;;;22.30;58.90;23.10;100281.00;;;;6269899;22;20161;-55
2023/07/21 07:39:11;;;;;;;8.10;7.40;;;22.30;58.60;23.10;100283.00;;;;6273075;22;20156;-56
2023/07/21 07:41:38;;;;;;;10.97;10.00;;;22.30;58.80;23.10;100276.00;;;;6273288;22;20560;-54
2023/07/21 07:44:06;;;;;;;9.00;8.27;;;22.10;58.90;23.10;100285.00;;;;6272831;22;20228;-54
2023/07/21 07:46:32;;;;;;;8.30;7.50;;;22.20;58.90;23.10;100280.00;;;;6272865;22;20148;-53
2023/07/21 07:48:57;;;;;;;9.10;8.30;;;22.30;58.70;23.00;100289.00;;;;6273069;22;20145;-54
2023/07/21 07:51:23;;;;;;;6.50;5.90;;;21.90;59.10;23.00;100287.00;;;;6272803;22;20226;-54
2023/07/21 07:53:49;;;;;;;9.23;8.53;;;22.10;58.60;23.00;100282.00;;;;6272793;22;20145;-55
2023/07/21 07:56:15;;;;;;;6.57;5.97;;;22.10;59.30;23.00;100293.00;;;;6271108;22;20485;-55
2023/07/21 07:58:41;;;;;;;4.87;4.47;;;22.20;58.80;23.00;100291.00;;;;6273076;22;20165;-55
2023/07/21 08:01:07;;;;;;;10.27;9.47;;;22.30;58.80;23.00;100288.00;;;;6272938;22;20142;-54
2023/07/21 08:03:32;;;;;;;7.70;7.00;;;22.30;59.10;23.00;100291.00;;;;6273414;22;20351;-54
2023/07/21 08:05:59;;;;;;;7.73;7.03;;;22.10;59.10;22.90;100287.00;;;;6272883;22;20149;-55
2023/07/21 08:08:24;;;;;;;7.23;6.53;;;22.10;59.00;22.90;100289.00;;;;6272709;22;20175;-55
2023/07/21 08:10:50;;;;;;;5.73;5.33;;;22.00;59.10;23.00;100288.00;;;;6272579;22;20149;-55
2023/07/21 08:13:16;;;;;;;6.57;5.97;;;22.10;58.40;23.00;100304.00;;;;6272491;22;20253;-55
2023/07/21 08:15:43;;;;;;;5.60;5.10;;;22.20;58.90;23.00;100284.00;;;;6272414;22;20215;-55
2023/07/21 08:18:10;;;;;;;4.27;3.90;;;22.30;58.50;23.00;100288.00;;;;6272738;22;20569;-55
2023/07/21 08:20:40;;;;;;;4.60;4.20;;;22.30;58.20;23.00;100281.00;;;;6273098;22;20223;-55
2023/07/21 08:23:05;;;;;;;4.80;4.40;;;22.40;58.10;23.00;100274.00;;;;6273059;22;20152;-55
2023/07/21 08:25:31;;;;;;;4.97;4.57;;;22.40;58.00;23.00;100280.00;;;;6272514;22;20149;-54
2023/07/21 08:28:03;;;;;;;4.73;4.33;;;22.40;58.00;23.10;100277.00;;;;6272723;22;20282;-54
2023/07/21 08:30:31;;;;;;;8.97;8.20;;;22.40;58.00;23.10;100278.00;;;;6272954;22;20211;-54
2023/07/21 08:32:58;;;;;;;6.00;5.50;;;22.30;58.60;23.10;100279.00;;;;6272826;22;20255;-54
2023/07/21 08:35:24;;;;;;;7.03;5.67;;;22.40;58.20;23.10;100284.00;;;;6272145;22;20145;-55
2023/07/21 08:37:50;;;;;;;4.87;4.47;;;22.40;58.20;23.10;100279.00;;;;6272224;22;20165;-55
2023/07/21 08:40:16;;;;;;;5.10;4.70;;;22.40;58.20;23.10;100285.00;;;;6270672;22;20455;-55
2023/07/21 08:42:42;;;;;;;4.30;3.90;;;22.40;58.00;23.10;100284.00;;;;6272347;22;20149;-55
2023/07/21 08:45:08;;;;;;;6.03;5.53;;;22.40;58.00;23.20;100284.00;;;;6272021;22;20206;-55
2023/07/21 08:47:34;;;;;;;8.00;7.40;;;22.40;58.10;23.20;100290.00;;;;6272467;22;20184;-52
2023/07/21 08:50:03;;;;;;;7.73;6.70;;;22.50;58.10;23.20;100285.00;;;;6272559;22;20172;-55
2023/07/21 08:52:28;;;;;;;5.93;5.43;;;22.30;58.20;23.20;100290.00;;;;6275861;22;20172;-54
2023/07/21 08:54:54;;;;;;;10.07;7.90;;;22.20;58.50;23.20;100288.00;;;;6275698;22;20152;-53
2023/07/21 08:57:20;;;;;;;8.47;7.77;;;22.20;58.60;23.20;100281.00;;;;6270494;22;20165;-54
2023/07/21 08:59:46;;;;;;;8.63;7.90;;;22.20;58.90;23.20;100287.00;;;;6245131;22;20243;-54
2023/07/21 09:02:11;;;;;;;7.07;6.40;;;22.10;59.00;23.10;100282.00;;;;6271910;22;20172;-56
2023/07/21 09:04:37;;;;;;;5.67;5.17;;;22.10;58.40;23.10;100282.00;;;;6272059;22;20149;-55
2023/07/21 09:07:03;;;;;;;10.80;6.60;;;22.20;58.30;23.10;100277.00;;;;6275651;22;20172;-55
2023/07/21 09:09:31;;;;;;;8.57;6.80;;;22.20;58.50;23.10;100288.00;;;;6276644;22;20152;-54
2023/07/21 09:12:24;;;;;;;6.30;5.43;;;22.20;58.20;23.20;100281.00;;;;6271963;22;20172;-55
2023/07/21 09:14:50;;;;;;;6.97;6.37;;;22.20;58.00;23.10;100282.00;;;;6239300;22;20168;-56
2023/07/21 09:17:16;;;;;;;5.33;4.93;;;22.10;57.80;23.10;100287.00;;;;6270796;22;20529;-55
2023/07/21 09:19:44;;;;;;;6.83;6.20;;;22.10;58.10;23.10;100288.00;;;;6272107;22;20148;-55
2023/07/21 09:22:11;;;;;;;7.00;6.30;;;22.10;58.20;23.10;100287.00;;;;6271914;22;20358;-55
2023/07/21 09:24:47;;;;;;;7.80;7.10;;;22.00;58.30;23.10;100290.00;;;;6272133;22;20145;-55
2023/07/21 09:27:14;;;;;;;7.20;6.50;;;22.10;58.30;23.10;100285.00;;;;6247314;22;20222;-54
2023/07/21 09:29:43;;;;;;;7.50;6.80;;;22.20;58.40;23.10;100283.00;;;;6267434;22;20152;-56
2023/07/21 09:32:17;;;;;;;5.90;4.97;;;22.00;57.90;23.10;100294.00;;;;6260627;22;20447;-55
2023/07/21 09:34:59;;;;;;;5.17;4.50;;;22.20;58.30;23.10;100283.00;;;;6271382;22;20549;-56
2023/07/21 09:37:30;;;;;;;4.03;3.63;;;22.30;57.90;23.10;100285.00;;;;6270813;22;20161;-55
2023/07/21 09:39:58;;;;;;;4.13;3.70;;;22.40;57.90;23.10;100288.00;;;;6271706;22;20546;-54
2023/07/21 09:42:25;;;;;;;4.23;3.73;;;22.40;57.80;23.10;100283.00;;;;6269504;22;20148;-55
2023/07/21 09:44:51;;;;;;;6.30;3.60;;;22.40;57.90;23.10;100288.00;;;;6271489;22;20238;-54
2023/07/21 09:47:17;;;;;;;4.10;3.70;;;22.50;57.60;23.10;100296.00;;;;6270622;22;20563;-52
2023/07/21 09:49:48;;;;;;;3.87;3.47;;;22.50;57.60;23.10;100295.00;;;;6271567;22;20153;-54
2023/07/21 09:52:16;;;;;;;4.00;3.20;;;22.50;57.10;23.10;100291.00;;;;6270910;22;20625;-53
2023/07/21 09:55:03;;;;;;;3.73;3.10;;;22.40;56.90;23.10;100300.00;;;;6270853;22;20149;-52
2023/07/21 09:57:29;;;;;;;4.17;3.13;;;22.50;56.90;23.10;100289.00;;;;6269175;22;20211;-52
2023/07/21 09:59:59;;;;;;;3.57;3.10;;;22.50;56.80;23.10;100296.00;;;;6219170;22;20141;-54
2023/07/21 10:02:25;;;;;;;3.80;3.13;;;22.50;56.60;23.10;100297.00;;;;6244740;22;20164;-53
2023/07/21 10:04:50;;;;;;;3.87;3.33;;;22.40;56.50;23.10;100299.00;;;;6271286;22;20151;-53
2023/07/21 10:07:16;;;;;;;3.40;3.10;;;22.50;56.30;23.10;100294.00;;;;6270363;22;20169;-53
2023/07/21 10:09:44;;;;;;;5.73;3.40;;;22.50;56.10;23.10;100282.00;;;;6269678;22;20199;-52
2023/07/21 10:12:11;;;;;;;4.37;3.10;;;22.50;55.70;23.10;100277.00;;;;6244411;22;20176;-53
2023/07/21 10:14:38;;;;;;;5.50;3.50;;;22.50;55.70;23.20;100282.00;;;;6269385;22;20145;-55
2023/07/21 10:17:06;;;;;;;3.20;2.90;;;22.50;55.50;23.20;100288.00;;;;6270569;22;20172;-52
2023/07/21 10:19:42;;;;;;;3.00;2.80;;;22.50;55.20;23.20;100271.00;;;;6269514;22;20149;-54
2023/07/21 10:22:12;;;;;;;3.63;2.80;;;22.50;55.30;23.20;100282.00;;;;6271183;22;20149;-53
2023/07/21 10:24:48;;;;;;;4.47;2.90;;;22.50;55.10;23.20;100282.00;;;;6271299;22;20155;-53
2023/07/21 10:27:23;;;;;;;2.90;2.70;;;22.60;55.20;23.20;100273.00;;;;6268760;22;20663;-53
2023/07/21 10:30:22;;;;;;;3.17;2.80;;;22.60;55.10;23.30;100278.00;;;;6270775;22;20159;-53
2023/07/21 10:32:48;;;;;;;3.33;2.80;;;22.70;55.10;23.30;100272.00;;;;6272135;22;20557;-53
2023/07/21 10:35:36;;;;;;;2.90;2.70;;;22.60;54.70;23.30;100282.00;;;;6220479;22;20233;-53
2023/07/21 10:38:14;;;;;;;3.03;2.83;;;22.70;54.40;23.30;100277.00;;;;6272330;22;20498;-53
2023/07/21 10:40:43;;;;;;;2.97;2.70;;;22.70;54.00;23.30;100283.00;;;;6263823;22;20505;-53
2023/07/21 10:43:09;;;;;;;3.40;2.63;;;22.60;53.40;23.30;100272.00;;;;6272725;22;20145;-53
2023/07/21 10:45:35;;;;;;;3.03;2.83;;;22.70;53.70;23.30;100265.00;;;;6272325;22;20699;-53
2023/07/21 10:48:16;;;;;;;2.83;2.63;;;22.70;53.50;23.30;100270.00;;;;6270847;22;20165;-53